Time;durP1;ratioP1;P1;durP2;ratioP2;P2;SDS_P1;SDS_P2;PMS_P1;PMS_P2;Temp;Humidity;BMP_temperature;BMP_pressure;BME280_temperature;BME280_humidity;BME280_pressure;Samples;Min_cycle;Max_cycle;Signal;HPM_P1;HPM_P2
2022/12/19 00:01:30;;;;;;;;;;;;;;;17.07;50.80;102917.81;5098534;28;1041;-58
2022/12/19 00:03:56;;;;;;;;;;;;;;;16.39;52.32;102922.88;5099249;28;1034;-58
2022/12/19 00:06:22;;;;;;;;;;;;;;;15.89;53.34;102928.16;5099425;28;1004;-58
2022/12/19 00:08:49;;;;;;;;;;;;;;;15.87;53.52;102927.56;5098997;28;983;-58
2022/12/19 00:11:14;;;;;;;;;;;;;;;17.31;49.98;102926.28;5098293;28;2461;-57
2022/12/19 00:13:40;;;;;;;;;;;;;;;16.27;52.62;102930.16;5093641;28;1094;-57
2022/12/19 00:16:06;;;;;;;;;;;;;;;15.84;53.36;102944.47;5089811;28;1046;-57
2022/12/19 00:18:31;;;;;;;;;;;;;;;15.64;53.68;102950.81;5099119;28;1082;-57
2022/12/19 00:20:57;;;;;;;;;;;;;;;16.32;52.62;102944.03;5099208;28;1980;-57
2022/12/19 00:23:23;;;;;;;;;;;;;;;16.81;51.24;102952.63;5098807;28;1149;-57
2022/12/19 00:25:48;;;;;;;;;;;;;;;15.97;53.43;102957.28;5098402;28;1101;-58
2022/12/19 00:28:14;;;;;;;;;;;;;;;15.68;53.84;102952.06;5098384;28;1071;-58
2022/12/19 00:30:39;;;;;;;;;;;;;;;16.17;52.85;102969.03;5099017;28;1082;-56
2022/12/19 00:33:04;;;;;;;;;;;;;;;17.52;49.43;102961.59;5099154;28;1130;-56
2022/12/19 00:35:30;;;;;;;;;;;;;;;16.44;52.20;102955.19;5098897;28;1138;-56
2022/12/19 00:37:55;;;;;;;;;;;;;;;15.95;53.28;102953.91;5096217;28;1248;-54
2022/12/19 00:40:21;;;;;;;;;;;;;;;15.66;53.74;102956.91;5098189;28;1909;-55
2022/12/19 00:42:46;;;;;;;;;;;;;;;16.37;52.64;102941.50;5088245;28;2326;-54
2022/12/19 00:45:13;;;;;;;;;;;;;;;16.95;50.87;102950.66;5098118;28;1174;-55
2022/12/19 00:47:39;;;;;;;;;;;;;;;16.07;52.86;102950.28;5098332;28;1185;-56
2022/12/19 00:50:04;;;;;;;;;;;;;;;15.75;53.68;102943.78;5098241;28;1038;-55
2022/12/19 00:52:30;;;;;;;;;;;;;;;15.52;54.07;102933.31;5098015;28;1034;-55
2022/12/19 00:54:55;;;;;;;;;;;;;;;16.96;51.03;102927.59;5098282;28;1011;-56
2022/12/19 00:57:21;;;;;;;;;;;;;;;16.47;51.93;102929.19;5098344;28;1130;-56
2022/12/19 00:59:46;;;;;;;;;;;;;;;15.86;53.12;102929.44;5098735;28;1905;-56
2022/12/19 01:02:12;;;;;;;;;;;;;;;15.60;53.82;102924.88;5097854;28;1023;-56
2022/12/19 01:04:37;;;;;;;;;;;;;;;16.91;51.04;102924.69;5097683;28;1157;-56
2022/12/19 01:07:04;;;;;;;;;;;;;;;16.63;51.52;102931.41;5097534;28;1090;-57
2022/12/19 01:09:30;;;;;;;;;;;;;;;15.94;53.10;102927.53;5098098;28;1018;-57
2022/12/19 01:14:39;;;;;;;;;;;;;;;16.49;52.13;102938.03;5098102;28;1090;-56
2022/12/19 01:17:06;;;;;;;;;;;;;;;17.24;49.82;102937.31;5097837;28;1105;-55
2022/12/19 01:19:31;;;;;;;;;;;;;;;16.24;52.57;102942.41;5096772;28;1906;-56
2022/12/19 01:21:57;;;;;;;;;;;;;;;15.85;53.10;102940.63;5084491;28;1086;-57
2022/12/19 01:24:22;;;;;;;;;;;;;;;15.83;53.39;102945.50;5097772;28;943;-58
2022/12/19 01:26:48;;;;;;;;;;;;;;;17.28;49.61;102941.31;5097563;28;1130;-57
2022/12/19 01:29:13;;;;;;;;;;;;;;;16.27;52.25;102952.09;5097643;28;1050;-57
2022/12/19 01:31:39;;;;;;;;;;;;;;;15.87;53.09;102946.75;5097654;28;1138;-57
2022/12/19 01:34:04;;;;;;;;;;;;;;;15.63;53.80;102960.09;5097451;28;1110;-58
2022/12/19 01:36:29;;;;;;;;;;;;;;;15.81;53.34;102955.84;5096020;28;1143;-57
2022/12/19 01:38:58;;;;;;;;;;;;;;;17.34;49.87;102965.13;5096536;28;1918;-58
2022/12/19 01:41:25;;;;;;;;;;;;;;;16.46;51.78;102950.31;5094908;28;2448;-58
2022/12/19 01:43:56;;;;;;;;;;;;;;;15.94;53.13;102952.25;5088936;28;1227;-57
2022/12/19 01:46:24;;;;;;;;;;;;;;;15.65;53.63;102957.13;5096774;28;971;-58
2022/12/19 01:48:49;;;;;;;;;;;;;;;15.72;53.75;102955.19;5095778;28;1073;-58
2022/12/19 01:51:15;;;;;;;;;;;;;;;17.27;49.69;102953.34;5086146;28;964;-57
2022/12/19 01:53:42;;;;;;;;;;;;;;;16.32;51.88;102960.50;5096982;28;1022;-58
2022/12/19 01:56:08;;;;;;;;;;;;;;;15.79;53.27;102969.78;5096258;28;1126;-57
2022/12/19 01:58:34;;;;;;;;;;;;;;;15.57;53.85;102964.53;5095917;28;1095;-57
2022/12/19 02:01:00;;;;;;;;;;;;;;;15.42;53.90;102972.13;5095951;28;1971;-57
2022/12/19 02:03:26;;;;;;;;;;;;;;;17.01;50.34;102973.66;5095209;28;1198;-58
2022/12/19 02:05:52;;;;;;;;;;;;;;;16.64;51.14;102967.97;5096295;28;1414;-58
2022/12/19 02:08:17;;;;;;;;;;;;;;;15.94;52.83;102968.69;5078850;28;1155;-58
2022/12/19 02:10:43;;;;;;;;;;;;;;;15.64;53.59;102978.22;5083236;28;1035;-57
2022/12/19 02:13:08;;;;;;;;;;;;;;;15.80;53.63;102984.34;5092487;28;2617;-58
2022/12/19 02:15:48;;;;;;;;;;;;;;;17.32;49.69;102980.16;5095371;28;1200;-58
2022/12/19 02:18:25;;;;;;;;;;;;;;;16.31;51.95;102985.44;5094970;28;1294;-58
2022/12/19 02:21:14;;;;;;;;;;;;;;;15.85;53.08;102987.28;5095288;28;1905;-57
2022/12/19 02:23:53;;;;;;;;;;;;;;;15.80;53.41;102987.09;5078837;28;1854;-57
2022/12/19 02:26:23;;;;;;;;;;;;;;;17.16;49.87;102996.16;5078351;28;1402;-57
2022/12/19 02:28:58;;;;;;;;;;;;;;;16.15;52.57;103000.50;5096225;28;887;-57
2022/12/19 02:31:23;;;;;;;;;;;;;;;15.73;53.29;103006.28;5094619;28;1869;-57
2022/12/19 02:33:53;;;;;;;;;;;;;;;16.43;52.27;102998.25;5095414;28;1341;-58
2022/12/19 02:36:20;;;;;;;;;;;;;;;16.84;50.59;103006.28;5095046;28;1145;-57
2022/12/19 02:38:45;;;;;;;;;;;;;;;16.04;52.83;103010.25;5094714;28;1960;-56
2022/12/19 02:41:14;;;;;;;;;;;;;;;15.71;53.18;103003.75;5096219;28;1832;-57
2022/12/19 02:43:41;;;;;;;;;;;;;;;16.18;52.82;103009.13;5086766;28;1045;-57
2022/12/19 02:46:08;;;;;;;;;;;;;;;16.91;50.52;103013.47;5078220;28;1133;-57
2022/12/19 02:48:34;;;;;;;;;;;;;;;16.04;52.86;103010.25;5078506;28;1217;-58
2022/12/19 02:51:02;;;;;;;;;;;;;;;15.66;53.58;103019.16;5077656;28;1201;-58
2022/12/19 02:53:30;;;;;;;;;;;;;;;15.47;53.92;103018.09;5095257;28;1147;-58
2022/12/19 02:56:20;;;;;;;;;;;;;;;16.63;51.42;103019.28;5094602;28;1153;-58
2022/12/19 02:59:25;;;;;;;;;;;;;;;16.51;51.34;103019.16;5088177;28;1902;-58
2022/12/19 03:02:11;;;;;;;;;;;;;;;15.83;52.98;103036.03;5037254;28;1331;-58
2022/12/19 03:04:46;;;;;;;;;;;;;;;15.54;53.65;103041.75;5087779;28;1696;-58
2022/12/19 03:07:11;;;;;;;;;;;;;;;16.94;50.72;103036.91;5095846;28;1141;-58
2022/12/19 03:09:44;;;;;;;;;;;;;;;16.42;51.64;103043.28;5096419;28;1074;-58
2022/12/19 03:12:11;;;;;;;;;;;;;;;15.82;53.24;103048.94;5074634;28;1850;-58
2022/12/19 03:14:37;;;;;;;;;;;;;;;15.71;53.69;103046.78;5094836;28;1055;-58
2022/12/19 03:17:03;;;;;;;;;;;;;;;17.29;49.80;103052.94;5095625;28;879;-58
2022/12/19 03:19:29;;;;;;;;;;;;;;;16.52;51.40;103063.94;5094574;28;1894;-57
2022/12/19 03:21:54;;;;;;;;;;;;;;;15.97;52.72;103067.06;5096107;28;1079;-57
2022/12/19 03:24:20;;;;;;;;;;;;;;;15.65;53.25;103073.16;5094748;28;1003;-55
2022/12/19 03:26:50;;;;;;;;;;;;;;;17.09;50.20;103073.19;5094589;28;1326;-54
2022/12/19 03:29:20;;;;;;;;;;;;;;;16.51;51.49;103064.97;5098769;28;952;-54
2022/12/19 03:31:46;;;;;;;;;;;;;;;15.91;52.85;103068.75;5098632;28;1132;-55
2022/12/19 03:34:16;;;;;;;;;;;;;;;15.63;53.24;103075.28;5100280;28;1035;-55
2022/12/19 03:36:43;;;;;;;;;;;;;;;16.01;52.66;103071.88;5081572;28;1139;-58
2022/12/19 03:39:08;;;;;;;;;;;;;;;17.14;49.73;103080.78;5098109;28;1906;-58
2022/12/19 03:44:18;;;;;;;;;;;;;;;15.73;53.10;103089.41;5095629;28;1103;-59
2022/12/19 03:46:44;;;;;;;;;;;;;;;15.79;53.35;103081.38;5097968;28;1004;-58
2022/12/19 03:49:10;;;;;;;;;;;;;;;17.32;49.52;103091.03;5098849;28;1246;-59
2022/12/19 03:51:54;;;;;;;;;;;;;;;16.40;51.54;103088.50;5098056;28;1030;-58
2022/12/19 03:54:24;;;;;;;;;;;;;;;15.83;52.88;103089.00;5086113;28;1051;-58
2022/12/19 03:56:49;;;;;;;;;;;;;;;15.57;53.34;103098.91;5098257;28;1044;-58
2022/12/19 03:59:15;;;;;;;;;;;;;;;16.50;51.39;103102.59;5098697;28;1979;-57
2022/12/19 04:01:41;;;;;;;;;;;;;;;16.71;50.69;103101.47;5098236;28;1155;-57
2022/12/19 04:04:09;;;;;;;;;;;;;;;15.97;52.44;103100.81;5097830;28;1106;-57
2022/12/19 04:06:35;;;;;;;;;;;;;;;16.65;51.37;103106.97;5098268;28;1143;-58
2022/12/19 04:09:00;;;;;;;;;;;;;;;17.10;49.78;103115.28;5097975;28;1103;-57
2022/12/19 04:11:26;;;;;;;;;;;;;;;16.18;52.27;103107.13;5097017;28;2324;-57
2022/12/19 04:13:53;;;;;;;;;;;;;;;15.84;52.71;103101.66;5097419;28;1039;-58
2022/12/19 04:16:21;;;;;;;;;;;;;;;15.58;53.42;103113.44;5097673;28;1257;-58
2022/12/19 04:18:50;;;;;;;;;;;;;;;15.92;52.69;103114.31;5097936;28;1217;-53
2022/12/19 04:21:21;;;;;;;;;;;;;;;17.30;49.51;103101.41;5097426;28;1008;-57
2022/12/19 04:23:48;;;;;;;;;;;;;;;16.20;52.12;103114.09;5097936;28;1052;-54
2022/12/19 04:26:13;;;;;;;;;;;;;;;15.77;53.08;103110.91;5097560;28;1063;-52
2022/12/19 04:28:39;;;;;;;;;;;;;;;15.77;53.29;103116.41;5098661;28;910;-53
2022/12/19 04:31:04;;;;;;;;;;;;;;;17.31;49.24;103108.59;5098242;28;1014;-57
2022/12/19 04:33:29;;;;;;;;;;;;;;;16.25;51.64;103117.00;5098827;28;1031;-55
2022/12/19 04:35:55;;;;;;;;;;;;;;;15.83;52.87;103119.19;5098995;28;1071;-56
2022/12/19 04:38:21;;;;;;;;;;;;;;;15.58;53.00;103129.91;5098369;28;1213;-58
2022/12/19 04:40:46;;;;;;;;;;;;;;;16.66;50.90;103134.25;5097267;28;1906;-58
2022/12/19 04:43:11;;;;;;;;;;;;;;;16.98;49.72;103133.50;5088502;28;2396;-56
2022/12/19 04:45:37;;;;;;;;;;;;;;;16.02;52.19;103136.69;5098543;28;1010;-57
2022/12/19 04:48:02;;;;;;;;;;;;;;;15.72;53.03;103137.09;5097405;28;1341;-56
2022/12/19 04:50:28;;;;;;;;;;;;;;;15.70;53.07;103130.13;5097736;28;978;-55
2022/12/19 04:52:53;;;;;;;;;;;;;;;17.16;49.72;103141.03;5097776;28;1045;-51
2022/12/19 04:55:22;;;;;;;;;;;;;;;16.15;52.09;103135.00;5098319;28;1079;-51
2022/12/19 04:57:47;;;;;;;;;;;;;;;15.79;52.75;103158.19;5098694;28;1098;-49
2022/12/19 05:00:13;;;;;;;;;;;;;;;17.26;49.30;103158.75;5098316;28;1913;-53
2022/12/19 05:02:38;;;;;;;;;;;;;;;16.30;51.44;103157.59;5098211;28;1022;-54
2022/12/19 05:05:04;;;;;;;;;;;;;;;15.84;52.50;103156.53;5097782;28;1400;-54
2022/12/19 05:07:29;;;;;;;;;;;;;;;15.60;52.90;103163.47;5083635;28;1036;-54
2022/12/19 05:09:58;;;;;;;;;;;;;;;16.24;51.78;103169.41;5098155;28;1067;-55
2022/12/19 05:12:23;;;;;;;;;;;;;;;17.38;48.77;103167.13;5084564;28;2657;-55
2022/12/19 05:14:48;;;;;;;;;;;;;;;16.32;51.34;103166.44;5097750;28;1026;-55
2022/12/19 05:17:14;;;;;;;;;;;;;;;15.81;52.53;103183.53;5097627;28;944;-56
2022/12/19 05:19:39;;;;;;;;;;;;;;;15.74;52.90;103173.38;5098004;28;1964;-56
2022/12/19 05:22:05;;;;;;;;;;;;;;;17.34;48.81;103185.13;5097764;28;1125;-52
2022/12/19 05:24:30;;;;;;;;;;;;;;;16.46;51.10;103186.47;5098083;28;1158;-55
2022/12/19 05:26:55;;;;;;;;;;;;;;;15.94;52.14;103193.72;5097593;28;1063;-54
2022/12/19 05:29:21;;;;;;;;;;;;;;;15.66;52.76;103198.25;5097108;28;1565;-56
2022/12/19 05:31:46;;;;;;;;;;;;;;;16.62;50.71;103195.31;5097199;28;1050;-57
2022/12/19 05:34:12;;;;;;;;;;;;;;;16.64;50.43;103195.97;5097597;28;1130;-58
2022/12/19 05:36:37;;;;;;;;;;;;;;;15.89;52.31;103203.41;5097661;28;1110;-55
2022/12/19 05:39:03;;;;;;;;;;;;;;;15.61;53.13;103205.44;5097587;28;1978;-59
2022/12/19 05:41:28;;;;;;;;;;;;;;;15.77;53.21;103212.41;5097191;28;1369;-54
2022/12/19 05:43:54;;;;;;;;;;;;;;;17.27;48.99;103211.84;5098100;28;1205;-56
2022/12/19 05:46:20;;;;;;;;;;;;;;;16.25;51.64;103215.00;5097397;28;1104;-54
2022/12/19 05:48:46;;;;;;;;;;;;;;;15.80;52.43;103232.09;5097624;28;1102;-56
2022/12/19 05:51:11;;;;;;;;;;;;;;;15.67;53.21;103221.91;5097369;28;1149;-56
2022/12/19 05:53:37;;;;;;;;;;;;;;;17.26;49.03;103229.38;5097199;28;1440;-56
2022/12/19 05:56:09;;;;;;;;;;;;;;;16.47;50.92;103226.63;5097411;28;1058;-55
2022/12/19 05:58:35;;;;;;;;;;;;;;;15.85;52.60;103224.09;5097090;28;1085;-59
2022/12/19 06:01:03;;;;;;;;;;;;;;;15.62;52.92;103232.66;5097387;28;1913;-58
2022/12/19 06:03:29;;;;;;;;;;;;;;;15.55;53.25;103234.53;5097178;28;1062;-58
2022/12/19 06:05:54;;;;;;;;;;;;;;;17.15;49.41;103232.81;5097088;28;898;-56
2022/12/19 06:08:20;;;;;;;;;;;;;;;16.63;50.21;103247.28;5097532;28;1169;-57
2022/12/19 06:10:45;;;;;;;;;;;;;;;15.99;52.06;103246.91;5097352;28;1082;-55
2022/12/19 06:13:11;;;;;;;;;;;;;;;15.62;52.69;103257.34;5097506;28;1213;-56
2022/12/19 06:15:36;;;;;;;;;;;;;;;16.22;51.76;103256.63;5097228;28;1158;-56
2022/12/19 06:18:01;;;;;;;;;;;;;;;17.16;49.02;103262.84;5097027;28;845;-57
2022/12/19 06:20:27;;;;;;;;;;;;;;;16.14;51.47;103265.06;5096879;28;1909;-56
2022/12/19 06:22:52;;;;;;;;;;;;;;;15.76;52.36;103269.19;5097308;28;1121;-55
2022/12/19 06:25:18;;;;;;;;;;;;;;;15.99;52.16;103260.63;5096570;28;1169;-56
2022/12/19 06:27:43;;;;;;;;;;;;;;;17.16;49.14;103273.00;5097318;28;1162;-56
2022/12/19 06:30:09;;;;;;;;;;;;;;;16.04;51.20;103282.78;5096975;28;1134;-55
2022/12/19 06:32:34;;;;;;;;;;;;;;;17.75;48.79;103285.66;5097065;28;1117;-59
2022/12/19 06:34:59;;;;;;;;;;;;;;;16.85;50.33;103285.53;5096312;28;1043;-52
2022/12/19 06:37:25;;;;;;;;;;;;;;;16.16;50.38;103290.38;5096420;28;1237;-52
2022/12/19 06:39:50;;;;;;;;;;;;;;;16.91;50.52;103298.44;5096709;28;1913;-56
2022/12/19 06:42:22;;;;;;;;;;;;;;;16.68;50.61;103305.19;5096568;28;891;-51
2022/12/19 06:44:47;;;;;;;;;;;;;;;16.29;50.63;103290.41;5084080;28;983;-52
2022/12/19 06:47:13;;;;;;;;;;;;;;;17.86;48.42;103295.09;5096379;28;1181;-52
2022/12/19 06:49:38;;;;;;;;;;;;;;;16.50;50.29;103303.09;5096271;28;1114;-56
2022/12/19 06:52:04;;;;;;;;;;;;;;;17.87;48.92;103315.22;5096614;28;1086;-56
2022/12/19 06:54:30;;;;;;;;;;;;;;;17.44;49.28;103305.69;5096464;28;871;-56
2022/12/19 06:56:55;;;;;;;;;;;;;;;16.75;50.45;103311.53;5096293;28;1106;-56
2022/12/19 06:59:21;;;;;;;;;;;;;;;18.54;47.49;103303.78;5090756;28;2004;-53
2022/12/19 07:01:46;;;;;;;;;;;;;;;17.01;49.61;103301.59;5094135;28;1165;-53
2022/12/19 07:04:12;;;;;;;;;;;;;;;17.67;49.41;103316.19;5094082;28;1090;-52
2022/12/19 07:06:37;;;;;;;;;;;;;;;17.89;48.80;103321.34;5078840;28;843;-46
2022/12/19 07:09:04;;;;;;;;;;;;;;;16.95;49.22;103321.69;5089863;28;1213;-50
2022/12/19 07:11:29;;;;;;;;;;;;;;;17.82;49.50;103328.81;5076209;28;1034;-48
2022/12/19 07:13:55;;;;;;;;;;;;;;;17.00;50.20;103332.91;5082255;28;1102;-48
2022/12/19 07:16:20;;;;;;;;;;;;;;;17.43;50.21;103339.75;5082746;28;1095;-49
2022/12/19 07:18:46;;;;;;;;;;;;;;;18.14;48.20;103340.72;5094677;28;1157;-46
2022/12/19 07:21:11;;;;;;;;;;;;;;;17.00;49.60;103341.13;5083101;28;1976;-47
2022/12/19 07:23:36;;;;;;;;;;;;;;;16.91;49.77;103348.78;5089741;28;1138;-47
2022/12/19 07:26:02;;;;;;;;;;;;;;;17.55;49.57;103348.19;5104260;28;1015;-49
2022/12/19 07:28:27;;;;;;;;;;;;;;;16.82;49.43;103347.25;5082797;28;1279;-50
2022/12/19 07:30:53;;;;;;;;;;;;;;;18.37;48.12;103355.81;5089366;28;1017;-60
2022/12/19 07:33:19;;;;;;;;;;;;;;;17.29;49.59;103360.94;5095982;28;1198;-59
2022/12/19 07:35:44;;;;;;;;;;;;;;;16.90;49.13;103351.69;5078684;28;1044;-50
2022/12/19 07:38:10;;;;;;;;;;;;;;;17.82;49.04;103353.56;5090073;28;1186;-48
2022/12/19 07:40:35;;;;;;;;;;;;;;;16.92;49.49;103355.09;5096078;28;1905;-50
2022/12/19 07:43:01;;;;;;;;;;;;;;;16.99;49.51;103355.09;5086999;28;972;-50
2022/12/19 07:45:26;;;;;;;;;;;;;;;17.20;49.98;103360.34;5078500;28;1233;-46
2022/12/19 07:47:52;;;;;;;;;;;;;;;16.61;49.50;103353.81;5087719;28;1268;-49
2022/12/19 07:50:17;;;;;;;;;;;;;;;17.67;49.40;103362.97;5083084;28;1089;-50
2022/12/19 07:52:43;;;;;;;;;;;;;;;16.92;49.79;103360.59;5096048;28;1373;-48
2022/12/19 07:55:08;;;;;;;;;;;;;;;18.08;48.54;103364.47;5095111;28;925;-53
2022/12/19 07:57:34;;;;;;;;;;;;;;;18.15;48.36;103363.59;5085017;28;1082;-49
2022/12/19 07:59:59;;;;;;;;;;;;;;;17.14;49.46;103363.09;5091808;28;1973;-60
2022/12/19 08:02:24;;;;;;;;;;;;;;;17.36;49.71;103375.56;5086830;28;986;-58
2022/12/19 08:04:50;;;;;;;;;;;;;;;17.32;49.63;103373.41;5084087;28;1125;-60
2022/12/19 08:07:15;;;;;;;;;;;;;;;17.69;49.65;103377.31;5090031;28;1011;-62
2022/12/19 08:09:41;;;;;;;;;;;;;;;18.97;46.48;103380.13;5081675;28;1058;-60
2022/12/19 08:12:06;;;;;;;;;;;;;;;17.36;49.26;103377.44;5095965;28;1041;-59
2022/12/19 08:14:32;;;;;;;;;;;;;;;17.07;48.45;103383.22;5096084;28;1089;-62
2022/12/19 08:16:57;;;;;;;;;;;;;;;17.24;49.16;103377.25;5085897;28;1201;-61
2022/12/19 08:19:23;;;;;;;;;;;;;;;17.22;49.56;103376.63;5080968;28;1882;-50
2022/12/19 08:21:48;;;;;;;;;;;;;;;16.82;48.85;103382.16;5093850;28;1119;-51
2022/12/19 08:24:14;;;;;;;;;;;;;;;17.61;49.36;103385.81;5089068;28;1154;-52
2022/12/19 08:26:40;;;;;;;;;;;;;;;17.35;49.30;103387.59;5090970;28;1402;-52
2022/12/19 08:29:05;;;;;;;;;;;;;;;16.75;49.27;103382.97;5088368;28;1347;-48
2022/12/19 08:31:31;;;;;;;;;;;;;;;18.16;48.47;103379.03;5086498;28;1071;-51
2022/12/19 08:33:56;;;;;;;;;;;;;;;17.03;49.48;103373.69;5087624;28;1229;-48
2022/12/19 08:36:22;;;;;;;;;;;;;;;17.39;50.06;103369.59;5089566;28;1225;-47
2022/12/19 08:38:48;;;;;;;;;;;;;;;17.44;49.49;103371.69;5088297;28;1190;-46
2022/12/19 08:41:14;;;;;;;;;;;;;;;16.99;49.03;103375.19;5087444;28;1984;-51
2022/12/19 08:43:39;;;;;;;;;;;;;;;16.69;48.09;103372.84;5090294;28;1000;-48
2022/12/19 08:46:05;;;;;;;;;;;;;;;17.39;49.20;103372.34;5098433;28;1315;-58
2022/12/19 08:48:30;;;;;;;;;;;;;;;16.94;49.75;103372.22;5097913;28;1395;-65
2022/12/19 08:50:56;;;;;;;;;;;;;;;18.67;47.42;103377.22;5096729;28;1344;-57
2022/12/19 08:53:22;;;;;;;;;;;;;;;17.50;49.29;103373.59;5098089;28;1154;-59
2022/12/19 08:55:54;;;;;;;;;;;;;;;16.92;48.74;103369.69;5092524;28;1020;-56
2022/12/19 08:58:19;;;;;;;;;;;;;;;17.61;49.32;103377.56;5077199;28;1019;-56
2022/12/19 09:00:45;;;;;;;;;;;;;;;17.10;49.66;103365.44;5093937;28;1905;-55
2022/12/19 09:03:10;;;;;;;;;;;;;;;17.05;49.59;103366.06;5098820;28;1084;-55
2022/12/19 09:05:37;;;;;;;;;;;;;;;18.00;48.63;103367.47;5098120;28;1023;-55
2022/12/19 09:08:02;;;;;;;;;;;;;;;17.05;49.10;103354.22;5097911;28;1117;-56
2022/12/19 09:10:29;;;;;;;;;;;;;;;18.06;48.90;103363.00;5085148;28;1212;-58
2022/12/19 09:12:54;;;;;;;;;;;;;;;17.45;49.26;103352.22;5098378;28;1183;-57
2022/12/19 09:15:20;;;;;;;;;;;;;;;16.91;48.91;103345.16;5098567;28;1053;-58
2022/12/19 09:17:45;;;;;;;;;;;;;;;18.12;48.54;103343.69;5087457;28;1130;-58
2022/12/19 09:20:11;;;;;;;;;;;;;;;17.07;49.31;103344.72;5095913;28;1906;-59
2022/12/19 09:22:36;;;;;;;;;;;;;;;17.03;49.61;103346.19;5087033;28;1126;-58
2022/12/19 09:25:01;;;;;;;;;;;;;;;17.61;49.09;103337.16;5077994;28;1105;-58
2022/12/19 09:27:27;;;;;;;;;;;;;;;17.18;49.95;103334.09;5077429;28;1047;-58
2022/12/19 09:29:52;;;;;;;;;;;;;;;18.97;46.77;103325.00;5094759;28;1142;-58
2022/12/19 09:32:18;;;;;;;;;;;;;;;17.68;48.97;103325.28;5097547;28;1113;-57
2022/12/19 09:34:43;;;;;;;;;;;;;;;17.12;48.59;103329.47;5084261;28;1121;-58
2022/12/19 09:37:09;;;;;;;;;;;;;;;17.27;48.74;103330.91;5087934;28;1120;-60
2022/12/19 09:39:35;;;;;;;;;;;;;;;17.71;48.84;103325.69;5091098;28;1970;-58
2022/12/19 09:42:04;;;;;;;;;;;;;;;16.86;49.05;103332.03;5087075;28;1063;-55
2022/12/19 09:44:35;;;;;;;;;;;;;;;16.76;48.16;103329.72;5095973;28;1051;-55
2022/12/19 09:47:01;;;;;;;;;;;;;;;17.25;48.85;103324.78;5097620;28;1094;-58
2022/12/19 09:49:35;;;;;;;;;;;;;;;17.69;48.81;103319.53;5097565;28;1122;-63
2022/12/19 09:52:19;;;;;;;;;;;;;;;17.20;49.72;103312.75;5084488;28;1123;-67
2022/12/19 09:54:54;;;;;;;;;;;;;;;19.01;46.72;103311.59;5077154;28;1007;-61
2022/12/19 09:57:23;;;;;;;;;;;;;;;17.39;49.25;103299.97;5093663;28;1126;-62
2022/12/19 09:59:56;;;;;;;;;;;;;;;16.97;48.66;103297.59;5096350;28;1970;-57
2022/12/19 10:02:24;;;;;;;;;;;;;;;18.19;48.49;103295.97;5096020;28;1023;-57
2022/12/19 10:05:16;;;;;;;;;;;;;;;17.13;49.26;103284.44;5097245;28;1118;-65
2022/12/19 10:07:42;;;;;;;;;;;;;;;17.02;48.68;103278.53;5091490;28;1557;-64
2022/12/19 10:10:12;;;;;;;;;;;;;;;17.75;48.63;103273.78;5092832;28;1292;-64
2022/12/19 10:12:56;;;;;;;;;;;;;;;17.02;48.92;103267.53;5087105;28;1078;-59
2022/12/19 10:15:27;;;;;;;;;;;;;;;18.06;48.56;103280.41;5096812;28;1479;-65
2022/12/19 10:17:53;;;;;;;;;;;;;;;17.02;49.37;103262.03;5085591;28;1082;-58
2022/12/19 10:20:22;;;;;;;;;;;;;;;17.37;49.45;103269.94;5090697;28;1909;-62
2022/12/19 10:23:06;;;;;;;;;;;;;;;17.78;48.83;103256.81;5088974;28;1206;-61
2022/12/19 10:25:37;;;;;;;;;;;;;;;17.03;48.69;103269.22;5085322;28;1166;-60
2022/12/19 10:28:02;;;;;;;;;;;;;;;18.60;47.28;103258.78;5096670;28;1054;-60
2022/12/19 10:30:28;;;;;;;;;;;;;;;17.29;49.17;103253.69;5095758;28;1218;-54
2022/12/19 10:33:13;;;;;;;;;;;;;;;17.14;49.35;103253.97;5095620;28;1312;-54
2022/12/19 10:35:42;;;;;;;;;;;;;;;17.39;49.39;103251.34;5096524;28;1109;-52
2022/12/19 10:38:14;;;;;;;;;;;;;;;16.94;48.68;103248.53;5096148;28;1294;-61
2022/12/19 10:40:39;;;;;;;;;;;;;;;17.85;48.37;103245.78;5088444;28;1973;-58
2022/12/19 10:43:09;;;;;;;;;;;;;;;16.99;49.02;103240.50;5097424;28;1178;-57
2022/12/19 10:45:45;;;;;;;;;;;;;;;18.38;47.66;103244.56;5081955;28;1174;-57
2022/12/19 10:48:11;;;;;;;;;;;;;;;17.72;48.60;103247.56;5081365;28;1147;-57
2022/12/19 10:50:37;;;;;;;;;;;;;;;17.16;48.40;103243.59;5085939;28;1210;-56
2022/12/19 10:53:02;;;;;;;;;;;;;;;16.82;48.17;103244.75;5090790;28;1197;-56
2022/12/19 10:55:38;;;;;;;;;;;;;;;17.73;48.40;103223.66;5085289;28;1244;-59
2022/12/19 10:58:11;;;;;;;;;;;;;;;16.93;48.98;103246.88;5110653;28;1187;-57
2022/12/19 11:00:37;;;;;;;;;;;;;;;18.42;47.60;103249.38;5086444;28;1914;-56
2022/12/19 11:03:07;;;;;;;;;;;;;;;17.43;49.07;103238.84;5078461;28;1058;-54
2022/12/19 11:05:39;;;;;;;;;;;;;;;16.99;48.51;103237.75;5083712;28;1182;-55
2022/12/19 11:08:07;;;;;;;;;;;;;;;18.16;48.18;103233.09;5091254;28;1043;-55
2022/12/19 11:10:43;;;;;;;;;;;;;;;17.19;48.98;103231.31;5078777;28;1285;-53
2022/12/19 11:13:34;;;;;;;;;;;;;;;16.72;48.51;103239.69;5076426;28;1772;-54
2022/12/19 11:16:01;;;;;;;;;;;;;;;17.86;48.47;103233.72;5087587;28;1108;-49
2022/12/19 11:18:39;;;;;;;;;;;;;;;16.87;49.13;103242.19;5095340;28;1229;-46
2022/12/19 11:21:34;;;;;;;;;;;;;;;17.20;48.93;103233.84;5092236;28;1921;-50
2022/12/19 11:24:01;;;;;;;;;;;;;;;17.09;49.20;103238.13;5078785;28;1266;-48
2022/12/19 11:26:32;;;;;;;;;;;;;;;17.52;49.23;103246.84;5090128;28;1191;-47
2022/12/19 11:29:02;;;;;;;;;;;;;;;18.24;47.46;103230.06;5078622;28;1165;-43
2022/12/19 11:31:28;;;;;;;;;;;;;;;17.12;48.65;103245.09;5087361;28;1111;-45
2022/12/19 11:33:54;;;;;;;;;;;;;;;17.38;49.09;103226.81;5096120;28;999;-51
2022/12/19 11:36:34;;;;;;;;;;;;;;;17.58;48.72;103227.53;5084964;28;1534;-49
2022/12/19 11:38:59;;;;;;;;;;;;;;;17.16;49.20;103221.59;5081224;28;1040;-56
2022/12/19 11:41:25;;;;;;;;;;;;;;;18.76;46.51;103219.59;5093531;28;1921;-56
2022/12/19 11:44:17;;;;;;;;;;;;;;;17.39;48.67;103221.09;5085746;28;1091;-61
2022/12/19 11:46:43;;;;;;;;;;;;;;;17.94;48.49;103231.56;5050543;28;1132;-56
2022/12/19 11:49:15;;;;;;;;;;;;;;;17.52;48.67;103231.16;5084810;28;1054;-58
2022/12/19 11:51:43;;;;;;;;;;;;;;;17.00;48.23;103231.19;5097725;28;1364;-58
2022/12/19 11:54:12;;;;;;;;;;;;;;;17.18;48.43;103229.63;5094754;28;1206;-58
2022/12/19 11:56:38;;;;;;;;;;;;;;;17.64;48.57;103228.53;5079427;28;865;-62
2022/12/19 11:59:09;;;;;;;;;;;;;;;17.03;48.52;103229.91;5087308;28;1147;-60
2022/12/19 12:01:42;;;;;;;;;;;;;;;18.47;47.26;103230.28;5079496;28;1269;-60
2022/12/19 12:04:17;;;;;;;;;;;;;;;17.28;48.74;103224.53;5078305;28;1000;-61
2022/12/19 12:06:45;;;;;;;;;;;;;;;17.44;49.04;103215.75;5092154;28;1131;-53
2022/12/19 12:09:16;;;;;;;;;;;;;;;17.81;48.46;103230.78;5090348;28;932;-57
2022/12/19 12:11:57;;;;;;;;;;;;;;;17.16;48.19;103229.84;5090631;28;1027;-56
2022/12/19 12:14:22;;;;;;;;;;;;;;;18.65;46.17;103236.91;5088641;28;1225;-54
2022/12/19 12:16:51;;;;;;;;;;;;;;;17.39;47.98;103229.34;5096957;28;1229;-52
2022/12/19 12:19:22;;;;;;;;;;;;;;;17.92;48.19;103238.34;5088026;28;1909;-54
2022/12/19 12:22:06;;;;;;;;;;;;;;;17.88;47.52;103231.56;5095833;28;1166;-53
2022/12/19 12:24:32;;;;;;;;;;;;;;;17.22;47.74;103230.88;5098081;28;1213;-52
2022/12/19 12:27:13;;;;;;;;;;;;;;;18.21;47.54;103236.03;5093384;28;1339;-55
2022/12/19 12:29:54;;;;;;;;;;;;;;;17.33;48.30;103235.69;5089164;28;1373;-55
2022/12/19 12:32:21;;;;;;;;;;;;;;;18.91;46.06;103241.28;5089114;28;1225;-56
2022/12/19 12:35:10;;;;;;;;;;;;;;;18.21;47.34;103238.78;5089328;28;1261;-54
2022/12/19 12:37:42;;;;;;;;;;;;;;;17.31;47.79;103242.50;5084601;28;1341;-53
2022/12/19 12:40:26;;;;;;;;;;;;;;;17.47;48.17;103241.16;5099157;28;1905;-54
2022/12/19 12:43:04;;;;;;;;;;;;;;;17.45;48.29;103247.69;5097679;28;1128;-53
2022/12/19 12:45:31;;;;;;;;;;;;;;;18.35;47.33;103243.09;5085389;28;833;-53
2022/12/19 12:47:57;;;;;;;;;;;;;;;18.62;46.52;103238.19;5094176;28;1054;-55
2022/12/19 12:50:23;;;;;;;;;;;;;;;17.59;48.20;103244.91;5097611;28;993;-56
2022/12/19 12:52:49;;;;;;;;;;;;;;;17.24;47.42;103245.28;5094798;28;1376;-55
2022/12/19 12:55:27;;;;;;;;;;;;;;;18.08;48.11;103246.06;5097893;28;1295;-53
2022/12/19 12:57:53;;;;;;;;;;;;;;;17.49;48.46;103255.50;5088681;28;1229;-54